sensor_id;sensor_type;location;lat;lon;timestamp;temperature;humidity
30174;DHT22;16985;50.814;8.530;2023-04-27T00:00:31;6.20;92.70
30174;DHT22;16985;50.814;8.530;2023-04-27T00:02:57;6.20;92.80
30174;DHT22;16985;50.814;8.530;2023-04-27T00:05:23;6.20;92.80
30174;DHT22;16985;50.814;8.530;2023-04-27T00:07:49;6.20;92.80
30174;DHT22;16985;50.814;8.530;2023-04-27T00:10:14;6.20;93.40
30174;DHT22;16985;50.814;8.530;2023-04-27T00:12:40;6.20;93.30
30174;DHT22;16985;50.814;8.530;2023-04-27T00:15:07;6.20;93.30
30174;DHT22;16985;50.814;8.530;2023-04-27T00:17:33;6.90;99.90
30174;DHT22;16985;50.814;8.530;2023-04-27T00:20:00;6.10;93.60
30174;DHT22;16985;50.814;8.530;2023-04-27T00:22:25;6.10;93.70
30174;DHT22;16985;50.814;8.530;2023-04-27T00:24:51;6.00;99.90
30174;DHT22;16985;50.814;8.530;2023-04-27T00:27:20;5.90;99.90
30174;DHT22;16985;50.814;8.530;2023-04-27T00:29:45;6.00;93.80
30174;DHT22;16985;50.814;8.530;2023-04-27T00:32:11;6.00;99.90
30174;DHT22;16985;50.814;8.530;2023-04-27T00:34:37;6.00;94.00
30174;DHT22;16985;50.814;8.530;2023-04-27T00:37:04;5.90;99.90
30174;DHT22;16985;50.814;8.530;2023-04-27T00:39:32;6.00;99.90
30174;DHT22;16985;50.814;8.530;2023-04-27T00:42:07;6.00;99.90
30174;DHT22;16985;50.814;8.530;2023-04-27T00:44:39;5.50;99.90
30174;DHT22;16985;50.814;8.530;2023-04-27T00:47:05;5.40;99.90
30174;DHT22;16985;50.814;8.530;2023-04-27T00:49:32;5.90;99.90
30174;DHT22;16985;50.814;8.530;2023-04-27T00:51:58;5.80;99.90
30174;DHT22;16985;50.814;8.530;2023-04-27T00:54:24;5.90;99.90
30174;DHT22;16985;50.814;8.530;2023-04-27T00:56:52;5.80;95.50
30174;DHT22;16985;50.814;8.530;2023-04-27T00:59:18;6.10;99.90
30174;DHT22;16985;50.814;8.530;2023-04-27T01:01:48;5.90;99.90
30174;DHT22;16985;50.814;8.530;2023-04-27T01:04:15;5.70;99.90
30174;DHT22;16985;50.814;8.530;2023-04-27T01:06:44;5.60;99.90
30174;DHT22;16985;50.814;8.530;2023-04-27T01:09:10;5.60;99.90
30174;DHT22;16985;50.814;8.530;2023-04-27T01:11:36;5.60;99.90
30174;DHT22;16985;50.814;8.530;2023-04-27T01:14:06;5.80;99.90
30174;DHT22;16985;50.814;8.530;2023-04-27T01:16:32;5.40;99.90
30174;DHT22;16985;50.814;8.530;2023-04-27T01:19:00;5.40;99.90
30174;DHT22;16985;50.814;8.530;2023-04-27T01:21:41;5.20;94.00
30174;DHT22;16985;50.814;8.530;2023-04-27T01:24:07;5.50;99.90
30174;DHT22;16985;50.814;8.530;2023-04-27T01:29:02;5.20;99.90
30174;DHT22;16985;50.814;8.530;2023-04-27T01:36:21;5.10;99.90
30174;DHT22;16985;50.814;8.530;2023-04-27T01:41:13;4.90;99.90
30174;DHT22;16985;50.814;8.530;2023-04-27T01:46:12;5.00;99.90
30174;DHT22;16985;50.814;8.530;2023-04-27T01:48:39;4.80;99.90
30174;DHT22;16985;50.814;8.530;2023-04-27T01:53:32;4.70;99.90
30174;DHT22;16985;50.814;8.530;2023-04-27T01:55:58;4.90;99.90
30174;DHT22;16985;50.814;8.530;2023-04-27T01:58:24;4.60;99.90
30174;DHT22;16985;50.814;8.530;2023-04-27T02:03:16;4.60;99.90
30174;DHT22;16985;50.814;8.530;2023-04-27T02:10:35;4.60;94.00
30174;DHT22;16985;50.814;8.530;2023-04-27T02:13:01;4.50;99.90
30174;DHT22;16985;50.814;8.530;2023-04-27T02:20:19;4.50;99.90
30174;DHT22;16985;50.814;8.530;2023-04-27T02:27:53;4.40;94.90
30174;DHT22;16985;50.814;8.530;2023-04-27T02:35:12;4.30;99.90
30174;DHT22;16985;50.814;8.530;2023-04-27T02:59:37;4.00;99.80
30174;DHT22;16985;50.814;8.530;2023-04-27T03:26:26;3.80;99.90
30174;DHT22;16985;50.814;8.530;2023-04-27T04:03:28;3.80;99.90
30174;DHT22;16985;50.814;8.530;2023-04-27T04:10:47;3.60;99.90
30174;DHT22;16985;50.814;8.530;2023-04-27T04:20:33;1.90;99.90
30174;DHT22;16985;50.814;8.530;2023-04-27T04:27:52;3.40;99.90
30174;DHT22;16985;50.814;8.530;2023-04-27T04:40:06;3.30;99.90
30174;DHT22;16985;50.814;8.530;2023-04-27T04:59:46;4.20;99.90
30174;DHT22;16985;50.814;8.530;2023-04-27T05:21:45;3.20;99.90
30174;DHT22;16985;50.814;8.530;2023-04-27T05:26:38;3.90;99.90
30174;DHT22;16985;50.814;8.530;2023-04-27T05:33:56;3.30;99.90
30174;DHT22;16985;50.814;8.530;2023-04-27T05:51:00;3.50;99.90
30174;DHT22;16985;50.814;8.530;2023-04-27T05:55:55;3.50;99.90
30174;DHT22;16985;50.814;8.530;2023-04-27T06:00:49;3.60;99.90
30174;DHT22;16985;50.814;8.530;2023-04-27T06:10:34;3.80;99.90
30174;DHT22;16985;50.814;8.530;2023-04-27T06:13:00;3.90;99.90
30174;DHT22;16985;50.814;8.530;2023-04-27T06:17:51;4.00;99.90
30174;DHT22;16985;50.814;8.530;2023-04-27T06:52:01;5.20;99.90
30174;DHT22;16985;50.814;8.530;2023-04-27T07:28:34;6.50;99.90
30174;DHT22;16985;50.814;8.530;2023-04-27T07:31:03;7.00;99.90
30174;DHT22;16985;50.814;8.530;2023-04-27T07:45:42;7.30;95.30
30174;DHT22;16985;50.814;8.530;2023-04-27T07:48:24;7.50;95.40
30174;DHT22;16985;50.814;8.530;2023-04-27T07:50:53;7.60;99.90
30174;DHT22;16985;50.814;8.530;2023-04-27T07:53:34;8.00;99.90
30174;DHT22;16985;50.814;8.530;2023-04-27T07:56:00;7.90;99.90
30174;DHT22;16985;50.814;8.530;2023-04-27T07:58:42;8.00;93.10
30174;DHT22;16985;50.814;8.530;2023-04-27T08:01:08;8.10;99.90
30174;DHT22;16985;50.814;8.530;2023-04-27T08:08:26;8.40;91.80
30174;DHT22;16985;50.814;8.530;2023-04-27T08:10:53;8.50;91.60
30174;DHT22;16985;50.814;8.530;2023-04-27T08:13:19;8.70;98.10
30174;DHT22;16985;50.814;8.530;2023-04-27T08:15:44;8.80;97.50
30174;DHT22;16985;50.814;8.530;2023-04-27T08:18:10;9.00;97.30
30174;DHT22;16985;50.814;8.530;2023-04-27T08:23:17;9.00;88.40
30174;DHT22;16985;50.814;8.530;2023-04-27T08:25:42;9.20;88.60
30174;DHT22;16985;50.814;8.530;2023-04-27T08:28:08;9.30;88.40
30174;DHT22;16985;50.814;8.530;2023-04-27T08:30:34;9.30;88.10
30174;DHT22;16985;50.814;8.530;2023-04-27T08:33:00;9.50;88.10
30174;DHT22;16985;50.814;8.530;2023-04-27T08:35:25;9.60;87.90
30174;DHT22;16985;50.814;8.530;2023-04-27T08:37:51;9.70;87.30
30174;DHT22;16985;50.814;8.530;2023-04-27T08:40:19;9.80;86.40
30174;DHT22;16985;50.814;8.530;2023-04-27T08:42:58;10.00;86.00
30174;DHT22;16985;50.814;8.530;2023-04-27T08:45:26;10.10;85.80
30174;DHT22;16985;50.814;8.530;2023-04-27T08:47:52;10.20;84.90
30174;DHT22;16985;50.814;8.530;2023-04-27T08:50:18;10.30;84.00
30174;DHT22;16985;50.814;8.530;2023-04-27T08:52:46;10.60;82.00
30174;DHT22;16985;50.814;8.530;2023-04-27T08:55:12;10.50;82.20
30174;DHT22;16985;50.814;8.530;2023-04-27T08:57:39;10.60;81.80
30174;DHT22;16985;50.814;8.530;2023-04-27T09:00:05;10.70;80.60
30174;DHT22;16985;50.814;8.530;2023-04-27T09:02:47;10.80;80.70
30174;DHT22;16985;50.814;8.530;2023-04-27T09:05:17;11.00;80.90
30174;DHT22;16985;50.814;8.530;2023-04-27T09:07:59;11.20;79.80
30174;DHT22;16985;50.814;8.530;2023-04-27T09:10:29;11.30;78.80
30174;DHT22;16985;50.814;8.530;2023-04-27T09:12:59;11.40;78.40
30174;DHT22;16985;50.814;8.530;2023-04-27T09:15:26;11.60;77.20
30174;DHT22;16985;50.814;8.530;2023-04-27T09:17:56;11.70;76.50
30174;DHT22;16985;50.814;8.530;2023-04-27T09:20:23;11.80;75.40
30174;DHT22;16985;50.814;8.530;2023-04-27T09:22:51;11.90;73.10
30174;DHT22;16985;50.814;8.530;2023-04-27T09:25:27;12.00;73.50
30174;DHT22;16985;50.814;8.530;2023-04-27T09:27:56;12.10;74.70
30174;DHT22;16985;50.814;8.530;2023-04-27T09:30:23;12.30;74.00
30174;DHT22;16985;50.814;8.530;2023-04-27T09:32:51;12.40;71.70
30174;DHT22;16985;50.814;8.530;2023-04-27T09:35:28;12.50;72.10
30174;DHT22;16985;50.814;8.530;2023-04-27T09:37:58;12.60;71.90
30174;DHT22;16985;50.814;8.530;2023-04-27T09:40:25;12.80;72.10
30174;DHT22;16985;50.814;8.530;2023-04-27T09:42:55;12.80;70.10
30174;DHT22;16985;50.814;8.530;2023-04-27T09:45:24;12.90;68.80
30174;DHT22;16985;50.814;8.530;2023-04-27T09:47:50;13.20;69.30
30174;DHT22;16985;50.814;8.530;2023-04-27T09:50:16;13.10;66.70
30174;DHT22;16985;50.814;8.530;2023-04-27T09:52:42;13.20;67.30
30174;DHT22;16985;50.814;8.530;2023-04-27T09:55:11;13.10;67.40
30174;DHT22;16985;50.814;8.530;2023-04-27T10:03:29;13.40;67.80
30174;DHT22;16985;50.814;8.530;2023-04-27T10:09:20;13.60;68.90
30174;DHT22;16985;50.814;8.530;2023-04-27T10:11:51;13.70;67.80
30174;DHT22;16985;50.814;8.530;2023-04-27T10:14:19;13.80;66.60
30174;DHT22;16985;50.814;8.530;2023-04-27T10:16:52;13.90;65.10
30174;DHT22;16985;50.814;8.530;2023-04-27T10:19:23;13.90;66.10
30174;DHT22;16985;50.814;8.530;2023-04-27T10:21:57;14.10;66.90
30174;DHT22;16985;50.814;8.530;2023-04-27T10:24:37;14.10;66.40
30174;DHT22;16985;50.814;8.530;2023-04-27T10:27:05;14.10;66.30
30174;DHT22;16985;50.814;8.530;2023-04-27T10:29:44;14.30;66.00
30174;DHT22;16985;50.814;8.530;2023-04-27T10:32:25;14.10;62.90
30174;DHT22;16985;50.814;8.530;2023-04-27T10:35:01;14.20;65.20
30174;DHT22;16985;50.814;8.530;2023-04-27T10:37:39;14.40;66.00
30174;DHT22;16985;50.814;8.530;2023-04-27T10:40:10;14.60;65.90
30174;DHT22;16985;50.814;8.530;2023-04-27T10:42:40;14.70;64.50
30174;DHT22;16985;50.814;8.530;2023-04-27T10:45:07;14.70;63.90
30174;DHT22;16985;50.814;8.530;2023-04-27T10:47:41;14.80;64.20
30174;DHT22;16985;50.814;8.530;2023-04-27T10:50:09;14.50;60.20
30174;DHT22;16985;50.814;8.530;2023-04-27T10:52:43;14.10;60.90
30174;DHT22;16985;50.814;8.530;2023-04-27T10:55:19;14.20;62.80
30174;DHT22;16985;50.814;8.530;2023-04-27T10:57:47;14.40;63.20
30174;DHT22;16985;50.814;8.530;2023-04-27T11:00:26;14.50;64.00
30174;DHT22;16985;50.814;8.530;2023-04-27T11:02:54;14.10;59.80
30174;DHT22;16985;50.814;8.530;2023-04-27T11:05:27;14.00;61.20
30174;DHT22;16985;50.814;8.530;2023-04-27T11:08:08;14.10;62.10
30174;DHT22;16985;50.814;8.530;2023-04-27T11:10:41;14.20;63.30
30174;DHT22;16985;50.814;8.530;2023-04-27T11:13:10;14.20;64.30
30174;DHT22;16985;50.814;8.530;2023-04-27T11:18:11;14.30;64.10
30174;DHT22;16985;50.814;8.530;2023-04-27T11:20:37;14.20;62.80
30174;DHT22;16985;50.814;8.530;2023-04-27T11:23:03;14.30;63.50
30174;DHT22;16985;50.814;8.530;2023-04-27T11:25:29;14.30;64.20
30174;DHT22;16985;50.814;8.530;2023-04-27T11:27:55;14.20;63.60
30174;DHT22;16985;50.814;8.530;2023-04-27T11:30:22;14.20;63.60
30174;DHT22;16985;50.814;8.530;2023-04-27T11:32:49;14.30;64.50
30174;DHT22;16985;50.814;8.530;2023-04-27T11:35:16;14.50;65.40
30174;DHT22;16985;50.814;8.530;2023-04-27T11:37:43;14.60;62.50
30174;DHT22;16985;50.814;8.530;2023-04-27T11:40:12;14.80;62.60
30174;DHT22;16985;50.814;8.530;2023-04-27T11:42:38;14.90;62.80
30174;DHT22;16985;50.814;8.530;2023-04-27T11:45:10;14.90;61.40
30174;DHT22;16985;50.814;8.530;2023-04-27T11:47:37;15.00;62.20
30174;DHT22;16985;50.814;8.530;2023-04-27T11:50:06;15.00;58.70
30174;DHT22;16985;50.814;8.530;2023-04-27T11:52:34;14.90;59.20
30174;DHT22;16985;50.814;8.530;2023-04-27T11:55:01;14.80;58.90
30174;DHT22;16985;50.814;8.530;2023-04-27T11:57:30;14.60;57.80
30174;DHT22;16985;50.814;8.530;2023-04-27T11:59:58;14.70;59.60
30174;DHT22;16985;50.814;8.530;2023-04-27T12:02:29;14.60;59.80
30174;DHT22;16985;50.814;8.530;2023-04-27T12:04:58;14.70;60.20
30174;DHT22;16985;50.814;8.530;2023-04-27T12:14:44;14.50;71.20
30174;DHT22;16985;50.814;8.530;2023-04-27T12:22:03;14.40;64.90
30174;DHT22;16985;50.814;8.530;2023-04-27T12:24:29;14.30;73.90
30174;DHT22;16985;50.814;8.530;2023-04-27T12:26:55;14.40;60.80
30174;DHT22;16985;50.814;8.530;2023-04-27T12:29:22;14.50;61.90
30174;DHT22;16985;50.814;8.530;2023-04-27T12:31:49;14.40;60.00
30174;DHT22;16985;50.814;8.530;2023-04-27T12:34:15;14.20;58.90
30174;DHT22;16985;50.814;8.530;2023-04-27T12:36:41;14.30;60.00
30174;DHT22;16985;50.814;8.530;2023-04-27T12:39:21;14.20;58.50
30174;DHT22;16985;50.814;8.530;2023-04-27T12:41:49;14.20;59.90
30174;DHT22;16985;50.814;8.530;2023-04-27T12:44:17;14.50;61.00
30174;DHT22;16985;50.814;8.530;2023-04-27T12:46:44;14.70;60.10
30174;DHT22;16985;50.814;8.530;2023-04-27T12:49:10;14.70;59.00
30174;DHT22;16985;50.814;8.530;2023-04-27T12:51:40;15.00;60.90
30174;DHT22;16985;50.814;8.530;2023-04-27T12:54:07;15.20;61.10
30174;DHT22;16985;50.814;8.530;2023-04-27T12:56:33;15.50;61.10
30174;DHT22;16985;50.814;8.530;2023-04-27T12:59:00;15.70;61.30
30174;DHT22;16985;50.814;8.530;2023-04-27T13:01:26;15.80;60.60
30174;DHT22;16985;50.814;8.530;2023-04-27T13:03:53;15.80;59.00
30174;DHT22;16985;50.814;8.530;2023-04-27T13:06:20;15.80;59.50
30174;DHT22;16985;50.814;8.530;2023-04-27T13:08:47;15.80;60.20
30174;DHT22;16985;50.814;8.530;2023-04-27T13:11:14;15.80;59.90
30174;DHT22;16985;50.814;8.530;2023-04-27T13:13:41;15.90;59.70
30174;DHT22;16985;50.814;8.530;2023-04-27T13:16:07;15.90;59.70
30174;DHT22;16985;50.814;8.530;2023-04-27T13:18:32;15.90;59.80
30174;DHT22;16985;50.814;8.530;2023-04-27T13:20:58;16.00;60.00
30174;DHT22;16985;50.814;8.530;2023-04-27T13:23:24;16.10;59.50
30174;DHT22;16985;50.814;8.530;2023-04-27T13:25:53;16.20;59.40
30174;DHT22;16985;50.814;8.530;2023-04-27T13:28:18;16.30;57.70
30174;DHT22;16985;50.814;8.530;2023-04-27T13:30:44;16.20;58.00
30174;DHT22;16985;50.814;8.530;2023-04-27T13:33:10;16.20;58.50
30174;DHT22;16985;50.814;8.530;2023-04-27T13:35:37;16.20;58.80
30174;DHT22;16985;50.814;8.530;2023-04-27T13:38:03;16.30;59.20
30174;DHT22;16985;50.814;8.530;2023-04-27T13:40:29;16.40;59.00
30174;DHT22;16985;50.814;8.530;2023-04-27T13:42:55;16.50;59.40
30174;DHT22;16985;50.814;8.530;2023-04-27T13:45:21;16.60;57.70
30174;DHT22;16985;50.814;8.530;2023-04-27T13:47:46;16.80;58.00
30174;DHT22;16985;50.814;8.530;2023-04-27T13:50:12;17.00;58.10
30174;DHT22;16985;50.814;8.530;2023-04-27T13:52:39;17.20;58.00
30174;DHT22;16985;50.814;8.530;2023-04-27T13:55:06;17.40;58.10
30174;DHT22;16985;50.814;8.530;2023-04-27T13:57:33;17.50;57.00
30174;DHT22;16985;50.814;8.530;2023-04-27T13:59:59;17.60;57.10
30174;DHT22;16985;50.814;8.530;2023-04-27T14:02:28;17.50;55.90
30174;DHT22;16985;50.814;8.530;2023-04-27T14:04:54;17.50;56.00
30174;DHT22;16985;50.814;8.530;2023-04-27T14:07:21;17.50;55.30
30174;DHT22;16985;50.814;8.530;2023-04-27T14:09:47;17.10;54.20
30174;DHT22;16985;50.814;8.530;2023-04-27T14:12:13;16.80;53.20
30174;DHT22;16985;50.814;8.530;2023-04-27T14:14:39;16.80;54.70
30174;DHT22;16985;50.814;8.530;2023-04-27T14:17:05;16.90;56.00
30174;DHT22;16985;50.814;8.530;2023-04-27T14:19:31;17.00;57.00
30174;DHT22;16985;50.814;8.530;2023-04-27T14:22:05;17.30;57.20
30174;DHT22;16985;50.814;8.530;2023-04-27T14:24:32;17.40;56.20
30174;DHT22;16985;50.814;8.530;2023-04-27T14:26:58;17.40;56.90
30174;DHT22;16985;50.814;8.530;2023-04-27T14:29:24;17.40;55.80
30174;DHT22;16985;50.814;8.530;2023-04-27T14:31:50;17.50;56.40
30174;DHT22;16985;50.814;8.530;2023-04-27T14:34:16;17.60;56.80
30174;DHT22;16985;50.814;8.530;2023-04-27T14:36:42;17.70;57.20
30174;DHT22;16985;50.814;8.530;2023-04-27T14:39:08;17.80;57.20
30174;DHT22;16985;50.814;8.530;2023-04-27T14:41:35;17.80;56.00
30174;DHT22;16985;50.814;8.530;2023-04-27T14:44:05;17.80;56.30
30174;DHT22;16985;50.814;8.530;2023-04-27T14:46:32;17.70;56.20
30174;DHT22;16985;50.814;8.530;2023-04-27T14:48:58;17.70;56.50
30174;DHT22;16985;50.814;8.530;2023-04-27T14:51:24;17.60;56.30
30174;DHT22;16985;50.814;8.530;2023-04-27T14:53:51;17.50;56.30
30174;DHT22;16985;50.814;8.530;2023-04-27T14:56:17;17.70;56.70
30174;DHT22;16985;50.814;8.530;2023-04-27T14:58:42;17.50;56.80
30174;DHT22;16985;50.814;8.530;2023-04-27T15:01:08;17.40;56.60
30174;DHT22;16985;50.814;8.530;2023-04-27T15:03:34;17.30;57.00
30174;DHT22;16985;50.814;8.530;2023-04-27T15:06:00;17.10;57.30
30174;DHT22;16985;50.814;8.530;2023-04-27T15:08:27;17.00;57.50
30174;DHT22;16985;50.814;8.530;2023-04-27T15:10:53;16.90;57.90
30174;DHT22;16985;50.814;8.530;2023-04-27T15:13:22;16.90;58.20
30174;DHT22;16985;50.814;8.530;2023-04-27T15:15:55;16.80;57.80
30174;DHT22;16985;50.814;8.530;2023-04-27T15:18:22;16.00;57.80
30174;DHT22;16985;50.814;8.530;2023-04-27T15:20:50;16.70;58.50
30174;DHT22;16985;50.814;8.530;2023-04-27T15:23:17;16.60;58.50
30174;DHT22;16985;50.814;8.530;2023-04-27T15:25:44;16.40;58.30
30174;DHT22;16985;50.814;8.530;2023-04-27T15:28:14;16.20;58.10
30174;DHT22;16985;50.814;8.530;2023-04-27T15:30:42;16.10;57.30
30174;DHT22;16985;50.814;8.530;2023-04-27T15:33:09;16.00;57.40
30174;DHT22;16985;50.814;8.530;2023-04-27T15:35:36;16.00;58.00
30174;DHT22;16985;50.814;8.530;2023-04-27T15:38:04;15.90;57.70
30174;DHT22;16985;50.814;8.530;2023-04-27T15:40:30;15.90;57.90
30174;DHT22;16985;50.814;8.530;2023-04-27T15:42:57;15.80;58.40
30174;DHT22;16985;50.814;8.530;2023-04-27T15:45:23;15.80;58.70
30174;DHT22;16985;50.814;8.530;2023-04-27T15:47:49;15.70;58.40
30174;DHT22;16985;50.814;8.530;2023-04-27T15:50:16;15.60;58.80
30174;DHT22;16985;50.814;8.530;2023-04-27T15:52:42;15.60;58.90
30174;DHT22;16985;50.814;8.530;2023-04-27T15:55:08;15.50;59.20
30174;DHT22;16985;50.814;8.530;2023-04-27T15:57:34;15.50;59.70
30174;DHT22;16985;50.814;8.530;2023-04-27T16:00:00;15.50;59.50
30174;DHT22;16985;50.814;8.530;2023-04-27T16:02:26;15.50;59.60
30174;DHT22;16985;50.814;8.530;2023-04-27T16:04:54;15.40;59.80
30174;DHT22;16985;50.814;8.530;2023-04-27T16:07:20;15.40;60.40
30174;DHT22;16985;50.814;8.530;2023-04-27T16:09:46;15.30;60.40
30174;DHT22;16985;50.814;8.530;2023-04-27T16:12:12;15.30;60.10
30174;DHT22;16985;50.814;8.530;2023-04-27T16:14:38;16.60;61.70
30174;DHT22;16985;50.814;8.530;2023-04-27T16:17:03;15.20;60.80
30174;DHT22;16985;50.814;8.530;2023-04-27T16:19:29;16.10;61.10
30174;DHT22;16985;50.814;8.530;2023-04-27T16:21:55;15.10;60.90
30174;DHT22;16985;50.814;8.530;2023-04-27T16:24:21;15.10;60.90
30174;DHT22;16985;50.814;8.530;2023-04-27T16:26:49;15.00;60.90
30174;DHT22;16985;50.814;8.530;2023-04-27T16:29:15;15.00;60.80
30174;DHT22;16985;50.814;8.530;2023-04-27T16:31:41;14.90;61.30
30174;DHT22;16985;50.814;8.530;2023-04-27T16:34:07;14.90;61.50
30174;DHT22;16985;50.814;8.530;2023-04-27T16:36:33;14.90;61.00
30174;DHT22;16985;50.814;8.530;2023-04-27T16:38:59;14.80;61.40
30174;DHT22;16985;50.814;8.530;2023-04-27T16:41:25;14.80;61.60
30174;DHT22;16985;50.814;8.530;2023-04-27T16:43:51;14.80;62.50
30174;DHT22;16985;50.814;8.530;2023-04-27T16:46:17;14.80;61.60
30174;DHT22;16985;50.814;8.530;2023-04-27T16:48:42;14.70;62.30
30174;DHT22;16985;50.814;8.530;2023-04-27T16:51:08;14.70;62.30
30174;DHT22;16985;50.814;8.530;2023-04-27T16:53:37;14.70;62.60
30174;DHT22;16985;50.814;8.530;2023-04-27T16:56:03;14.70;62.60
30174;DHT22;16985;50.814;8.530;2023-04-27T16:58:29;14.60;62.30
30174;DHT22;16985;50.814;8.530;2023-04-27T17:01:05;14.60;62.40
30174;DHT22;16985;50.814;8.530;2023-04-27T17:03:30;15.90;63.20
30174;DHT22;16985;50.814;8.530;2023-04-27T17:05:57;14.50;62.60
30174;DHT22;16985;50.814;8.530;2023-04-27T17:08:23;14.40;63.10
30174;DHT22;16985;50.814;8.530;2023-04-27T17:10:49;14.40;63.20
30174;DHT22;16985;50.814;8.530;2023-04-27T17:13:16;14.30;63.20
30174;DHT22;16985;50.814;8.530;2023-04-27T17:15:41;14.30;63.30
30174;DHT22;16985;50.814;8.530;2023-04-27T17:18:07;14.20;62.90
30174;DHT22;16985;50.814;8.530;2023-04-27T17:20:34;14.10;63.70
30174;DHT22;16985;50.814;8.530;2023-04-27T17:23:00;14.10;63.80
30174;DHT22;16985;50.814;8.530;2023-04-27T17:25:26;14.00;63.90
30174;DHT22;16985;50.814;8.530;2023-04-27T17:27:52;13.90;64.40
30174;DHT22;16985;50.814;8.530;2023-04-27T17:30:18;14.00;64.70
30174;DHT22;16985;50.814;8.530;2023-04-27T17:32:43;14.00;64.40
30174;DHT22;16985;50.814;8.530;2023-04-27T17:35:09;13.90;64.40
30174;DHT22;16985;50.814;8.530;2023-04-27T17:37:36;13.90;64.70
30174;DHT22;16985;50.814;8.530;2023-04-27T17:40:03;13.80;64.80
30174;DHT22;16985;50.814;8.530;2023-04-27T17:42:32;13.80;64.60
30174;DHT22;16985;50.814;8.530;2023-04-27T17:44:58;13.80;64.80
30174;DHT22;16985;50.814;8.530;2023-04-27T17:47:23;13.70;64.90
30174;DHT22;16985;50.814;8.530;2023-04-27T17:49:50;13.70;65.10
30174;DHT22;16985;50.814;8.530;2023-04-27T17:52:16;13.70;65.70
30174;DHT22;16985;50.814;8.530;2023-04-27T17:54:41;13.60;66.00
30174;DHT22;16985;50.814;8.530;2023-04-27T17:57:07;13.60;66.00
30174;DHT22;16985;50.814;8.530;2023-04-27T17:59:34;13.60;66.80
30174;DHT22;16985;50.814;8.530;2023-04-27T18:02:00;13.50;67.10
30174;DHT22;16985;50.814;8.530;2023-04-27T18:04:27;13.50;66.90
30174;DHT22;16985;50.814;8.530;2023-04-27T18:06:53;13.40;67.40
30174;DHT22;16985;50.814;8.530;2023-04-27T18:09:18;13.40;67.90
30174;DHT22;16985;50.814;8.530;2023-04-27T18:11:44;13.30;68.00
30174;DHT22;16985;50.814;8.530;2023-04-27T18:14:26;13.30;68.00
30174;DHT22;16985;50.814;8.530;2023-04-27T18:16:52;13.20;68.50
30174;DHT22;16985;50.814;8.530;2023-04-27T18:19:18;13.20;68.80
30174;DHT22;16985;50.814;8.530;2023-04-27T18:21:43;13.20;69.30
30174;DHT22;16985;50.814;8.530;2023-04-27T18:24:09;13.10;69.70
30174;DHT22;16985;50.814;8.530;2023-04-27T18:26:50;13.10;69.60
30174;DHT22;16985;50.814;8.530;2023-04-27T18:29:15;13.00;70.30
30174;DHT22;16985;50.814;8.530;2023-04-27T18:31:41;12.90;70.80
30174;DHT22;16985;50.814;8.530;2023-04-27T18:34:07;12.90;71.20
30174;DHT22;16985;50.814;8.530;2023-04-27T18:36:33;12.80;71.30
30174;DHT22;16985;50.814;8.530;2023-04-27T18:38:58;12.80;71.70
30174;DHT22;16985;50.814;8.530;2023-04-27T18:41:25;12.70;71.80
30174;DHT22;16985;50.814;8.530;2023-04-27T18:43:51;12.70;72.00
30174;DHT22;16985;50.814;8.530;2023-04-27T18:46:17;12.60;72.30
30174;DHT22;16985;50.814;8.530;2023-04-27T18:48:42;12.50;72.60
30174;DHT22;16985;50.814;8.530;2023-04-27T18:51:08;12.50;72.40
30174;DHT22;16985;50.814;8.530;2023-04-27T18:53:34;10.60;71.10
30174;DHT22;16985;50.814;8.530;2023-04-27T18:56:00;12.40;72.60
30174;DHT22;16985;50.814;8.530;2023-04-27T18:58:26;12.40;73.40
30174;DHT22;16985;50.814;8.530;2023-04-27T19:00:52;12.30;73.20
30174;DHT22;16985;50.814;8.530;2023-04-27T19:03:18;11.00;73.10
30174;DHT22;16985;50.814;8.530;2023-04-27T19:05:43;12.20;74.00
30174;DHT22;16985;50.814;8.530;2023-04-27T19:08:09;12.20;73.90
30174;DHT22;16985;50.814;8.530;2023-04-27T19:10:35;12.10;73.90
30174;DHT22;16985;50.814;8.530;2023-04-27T19:13:01;12.10;74.00
30174;DHT22;16985;50.814;8.530;2023-04-27T19:15:27;12.00;73.90
30174;DHT22;16985;50.814;8.530;2023-04-27T19:17:53;12.00;74.00
30174;DHT22;16985;50.814;8.530;2023-04-27T19:20:19;12.00;74.10
30174;DHT22;16985;50.814;8.530;2023-04-27T19:22:53;12.00;74.30
30174;DHT22;16985;50.814;8.530;2023-04-27T19:25:19;12.00;74.50
30174;DHT22;16985;50.814;8.530;2023-04-27T19:27:45;11.90;74.80
30174;DHT22;16985;50.814;8.530;2023-04-27T19:30:11;11.90;75.40
30174;DHT22;16985;50.814;8.530;2023-04-27T19:32:37;11.80;75.80
30174;DHT22;16985;50.814;8.530;2023-04-27T19:35:03;11.80;76.10
30174;DHT22;16985;50.814;8.530;2023-04-27T19:37:29;10.10;75.60
30174;DHT22;16985;50.814;8.530;2023-04-27T19:39:55;11.70;76.90
30174;DHT22;16985;50.814;8.530;2023-04-27T19:42:21;13.00;78.10
30174;DHT22;16985;50.814;8.530;2023-04-27T19:44:46;11.60;77.50
30174;DHT22;16985;50.814;8.530;2023-04-27T19:47:15;11.60;77.60
30174;DHT22;16985;50.814;8.530;2023-04-27T19:49:41;11.60;77.70
30174;DHT22;16985;50.814;8.530;2023-04-27T19:52:07;11.50;77.70
30174;DHT22;16985;50.814;8.530;2023-04-27T19:54:33;11.50;77.70
30174;DHT22;16985;50.814;8.530;2023-04-27T19:57:17;11.40;77.70
30174;DHT22;16985;50.814;8.530;2023-04-27T19:59:46;11.40;77.60
30174;DHT22;16985;50.814;8.530;2023-04-27T20:02:12;11.40;77.70
30174;DHT22;16985;50.814;8.530;2023-04-27T20:04:40;11.40;77.80
30174;DHT22;16985;50.814;8.530;2023-04-27T20:07:22;11.30;78.00
30174;DHT22;16985;50.814;8.530;2023-04-27T20:09:48;11.30;78.20
30174;DHT22;16985;50.814;8.530;2023-04-27T20:12:14;11.20;78.20
30174;DHT22;16985;50.814;8.530;2023-04-27T20:14:41;11.20;78.30
30174;DHT22;16985;50.814;8.530;2023-04-27T20:17:07;11.20;78.40
30174;DHT22;16985;50.814;8.530;2023-04-27T20:19:32;11.20;78.40
30174;DHT22;16985;50.814;8.530;2023-04-27T20:21:58;11.10;78.60
30174;DHT22;16985;50.814;8.530;2023-04-27T20:24:24;11.10;79.20
30174;DHT22;16985;50.814;8.530;2023-04-27T20:26:50;11.10;79.50
30174;DHT22;16985;50.814;8.530;2023-04-27T20:29:15;11.00;79.40
30174;DHT22;16985;50.814;8.530;2023-04-27T20:31:41;11.10;79.50
30174;DHT22;16985;50.814;8.530;2023-04-27T20:34:07;11.00;79.80
30174;DHT22;16985;50.814;8.530;2023-04-27T20:36:33;11.00;80.90
30174;DHT22;16985;50.814;8.530;2023-04-27T20:38:59;10.90;80.60
30174;DHT22;16985;50.814;8.530;2023-04-27T20:41:31;10.90;81.10
30174;DHT22;16985;50.814;8.530;2023-04-27T20:44:00;10.90;80.90
30174;DHT22;16985;50.814;8.530;2023-04-27T20:46:26;10.90;80.90
30174;DHT22;16985;50.814;8.530;2023-04-27T20:48:52;10.90;81.10
30174;DHT22;16985;50.814;8.530;2023-04-27T20:51:18;10.80;81.40
30174;DHT22;16985;50.814;8.530;2023-04-27T20:53:43;10.80;82.60
30174;DHT22;16985;50.814;8.530;2023-04-27T20:56:09;10.70;81.50
30174;DHT22;16985;50.814;8.530;2023-04-27T20:58:36;10.70;81.70
30174;DHT22;16985;50.814;8.530;2023-04-27T21:01:02;10.70;81.60
30174;DHT22;16985;50.814;8.530;2023-04-27T21:03:27;10.70;81.70